Station: EBLG - 22/10/2021 09:20Z (il y a 32 minutes)
EBLG 220920Z 24016KT 9999 FEW020 09/04 Q1018 NOSIG
Vent du 240º - 16 kt
Visibilité > 10 km
Nuages épars à 2000 pieds
Température: +09ºC - Point de rosée: +04ºC - QNH: 1018 hPa
Pas de changement significatif prévu dans les 2 heures qui suivent l'observation